Time;durP1;ratioP1;P1;durP2;ratioP2;P2;SDS_P1;SDS_P2;PMS_P1;PMS_P2;Temp;Humidity;BMP_temperature;BMP_pressure;BME280_temperature;BME280_humidity;BME280_pressure;Samples;Min_cycle;Max_cycle;Signal;HPM_P1;HPM_P2
2020/12/12 00:02:30;;;;;;;36.35;21.35;;;;;;;0.49;100.00;98882.25;1802239;78;21365;-55
2020/12/12 00:04:59;;;;;;;37.05;21.60;;;;;;;0.48;100.00;98886.09;1802176;79;21602;-55
2020/12/12 00:07:27;;;;;;;37.23;21.25;;;;;;;0.48;100.00;98890.77;1802096;78;21817;-53
2020/12/12 00:09:54;;;;;;;35.30;20.80;;;;;;;0.48;100.00;98881.83;1802122;79;21129;-53
2020/12/12 00:12:22;;;;;;;33.35;19.35;;;;;;;0.49;100.00;98887.36;1802008;79;21149;-53
2020/12/12 00:14:51;;;;;;;37.10;21.17;;;;;;;0.51;100.00;98892.47;1802093;79;21424;-53
2020/12/12 00:17:19;;;;;;;34.38;20.65;;;;;;;0.50;100.00;98890.77;1802099;79;21086;-53
2020/12/12 00:19:47;;;;;;;34.70;20.08;;;;;;;0.45;100.00;98888.20;1802186;79;21058;-53
2020/12/12 00:22:15;;;;;;;38.95;21.07;;;;;;;0.44;100.00;98890.77;1802166;79;21113;-53
2020/12/12 00:24:42;;;;;;;38.55;21.80;;;;;;;0.44;100.00;98884.38;1802239;79;21141;-53
2020/12/12 00:27:09;;;;;;;33.65;19.40;;;;;;;0.45;100.00;98896.30;1802110;79;21334;-55
2020/12/12 00:29:37;;;;;;;33.92;19.52;;;;;;;0.48;100.00;98895.04;1802160;79;21130;-53
2020/12/12 00:32:04;;;;;;;35.63;20.27;;;;;;;0.47;100.00;98884.39;1802038;79;21622;-53
2020/12/12 00:34:33;;;;;;;37.85;20.65;;;;;;;0.46;100.00;98897.60;1802181;79;21153;-54
2020/12/12 00:37:02;;;;;;;33.50;19.52;;;;;;;0.47;100.00;98895.90;1801859;79;21161;-55
2020/12/12 00:39:29;;;;;;;34.58;20.35;;;;;;;0.48;100.00;98898.88;1802175;79;21421;-53
2020/12/12 00:41:57;;;;;;;39.27;21.75;;;;;;;0.46;100.00;98894.20;1802183;79;21109;-52
2020/12/12 00:44:25;;;;;;;36.98;20.05;;;;;;;0.42;100.00;98893.76;1802001;79;21094;-53
2020/12/12 00:46:53;;;;;;;34.50;20.45;;;;;;;0.41;100.00;98886.52;1802060;79;21172;-53
2020/12/12 00:49:21;;;;;;;36.20;20.77;;;;;;;0.40;100.00;98886.52;1802147;79;21082;-53
2020/12/12 00:51:49;;;;;;;32.50;18.42;;;;;;;0.39;100.00;98888.66;1802159;79;21502;-53
2020/12/12 00:54:17;;;;;;;37.50;20.52;;;;;;;0.41;100.00;98884.39;1801937;78;21074;-53
2020/12/12 00:56:45;;;;;;;30.37;18.80;;;;;;;0.41;100.00;98881.41;1803925;79;21117;-53
2020/12/12 00:59:12;;;;;;;31.75;18.48;;;;;;;0.42;100.00;98883.53;1804379;79;21149;-53
2020/12/12 01:01:40;;;;;;;31.95;18.75;;;;;;;0.39;100.00;98875.88;1804378;79;21054;-53
2020/12/12 01:04:08;;;;;;;29.40;16.32;;;;;;;0.36;100.00;98879.69;1804249;79;21987;-53
2020/12/12 01:06:36;;;;;;;27.58;16.12;;;;;;;0.34;100.00;98878.84;1804327;79;21132;-53
2020/12/12 01:09:04;;;;;;;28.25;17.02;;;;;;;0.34;100.00;98873.73;1804414;79;21600;-53
2020/12/12 01:11:31;;;;;;;31.90;18.15;;;;;;;0.34;100.00;98882.25;1804403;79;21169;-53
2020/12/12 01:13:59;;;;;;;30.35;18.25;;;;;;;0.34;100.00;98873.73;1804209;79;21058;-53
2020/12/12 01:16:27;;;;;;;28.83;15.88;;;;;;;0.33;100.00;98878.00;1804207;79;21203;-53
2020/12/12 01:18:54;;;;;;;31.50;17.17;;;;;;;0.33;100.00;98869.48;1804388;79;21116;-54
2020/12/12 01:21:22;;;;;;;33.58;18.60;;;;;;;0.34;100.00;98868.62;1804421;79;21146;-53
2020/12/12 01:23:50;;;;;;;30.25;17.87;;;;;;;0.35;100.00;98871.17;1804367;79;21117;-55
2020/12/12 01:26:17;;;;;;;29.18;17.67;;;;;;;0.35;100.00;98873.73;1804428;78;21169;-53
2020/12/12 01:28:45;;;;;;;29.95;17.00;;;;;;;0.36;100.00;98870.74;1804434;79;21201;-55
2020/12/12 01:31:13;;;;;;;29.57;17.12;;;;;;;0.33;100.00;98872.03;1804131;79;21137;-56
2020/12/12 01:33:41;;;;;;;28.70;16.37;;;;;;;0.31;100.00;98866.08;1804135;79;21163;-55
2020/12/12 01:36:08;;;;;;;30.05;16.95;;;;;;;0.27;100.00;98868.62;1804182;78;21041;-55
2020/12/12 01:38:36;;;;;;;26.87;17.02;;;;;;;0.26;100.00;98877.14;1804590;79;21046;-55
2020/12/12 01:41:05;;;;;;;30.55;16.32;;;;;;;0.25;100.00;98871.61;1804562;79;21259;-55
2020/12/12 01:43:33;;;;;;;31.77;17.90;;;;;;;0.25;100.00;98878.00;1804549;79;21164;-55
2020/12/12 01:46:00;;;;;;;32.83;17.75;;;;;;;0.23;100.00;98871.20;1804637;79;21074;-55
2020/12/12 01:48:28;;;;;;;29.00;17.45;;;;;;;0.24;100.00;98872.47;1804410;79;21054;-55
2020/12/12 01:50:57;;;;;;;25.15;15.93;;;;;;;0.21;100.00;98868.62;1804640;79;21125;-54
2020/12/12 01:53:26;;;;;;;29.52;16.30;;;;;;;0.21;100.00;98862.66;1804527;79;21440;-55
2020/12/12 01:55:54;;;;;;;24.32;14.87;;;;;;;0.25;100.00;98864.38;1804395;79;21125;-55
2020/12/12 01:58:22;;;;;;;27.20;15.70;;;;;;;0.26;100.00;98867.34;1804315;79;21144;-55
2020/12/12 02:00:49;;;;;;;31.73;17.23;;;;;;;0.27;100.00;98863.51;1804601;78;21086;-55
2020/12/12 02:03:18;;;;;;;27.48;15.60;;;;;;;0.25;100.00;98863.94;1804500;79;21149;-55
2020/12/12 02:05:46;;;;;;;28.98;16.55;;;;;;;0.25;100.00;98861.81;1782518;79;21377;-55
2020/12/12 02:08:18;;;;;;;24.80;15.13;;;;;;;0.23;100.00;98860.97;1804315;79;21125;-56
2020/12/12 02:10:48;;;;;;;28.12;15.40;;;;;;;0.25;100.00;98867.78;1804553;79;21098;-55
2020/12/12 02:13:17;;;;;;;24.25;14.20;;;;;;;0.24;100.00;98863.95;1804496;79;21125;-54
2020/12/12 02:15:45;;;;;;;23.45;13.98;;;;;;;0.22;100.00;98865.20;1804692;79;21145;-53
2020/12/12 02:18:20;;;;;;;23.47;14.00;;;;;;;0.22;100.00;98863.92;1804539;79;21215;-53
2020/12/12 02:20:57;;;;;;;20.15;12.60;;;;;;;0.25;100.00;98857.98;1804735;79;21054;-54
2020/12/12 02:23:25;;;;;;;20.27;13.05;;;;;;;0.25;100.00;98853.72;1804347;79;21113;-54
2020/12/12 02:25:55;;;;;;;18.20;12.13;;;;;;;0.25;100.00;98852.44;1804590;79;21566;-53
2020/12/12 02:28:26;;;;;;;18.35;11.25;;;;;;;0.25;100.00;98851.16;1804342;79;21187;-53
2020/12/12 02:30:52;;;;;;;17.32;11.50;;;;;;;0.24;100.00;98850.73;1804625;79;23638;-53
2020/12/12 02:33:20;;;;;;;15.85;10.80;;;;;;;0.24;100.00;98851.17;1804468;79;21125;-53
2020/12/12 02:35:48;;;;;;;19.62;12.73;;;;;;;0.27;100.00;98851.16;1804439;79;21061;-55
2020/12/12 02:38:16;;;;;;;19.35;11.80;;;;;;;0.26;100.00;98849.03;1804534;78;21121;-55
2020/12/12 02:40:44;;;;;;;17.07;11.60;;;;;;;0.26;100.00;98849.03;1804588;79;21120;-55
2020/12/12 02:43:13;;;;;;;22.15;13.10;;;;;;;0.24;100.00;98844.34;1804596;78;21352;-55
2020/12/12 02:45:45;;;;;;;23.42;13.58;;;;;;;0.22;100.00;98846.03;1804553;79;21654;-53
2020/12/12 02:48:14;;;;;;;22.82;13.48;;;;;;;0.23;100.00;98845.64;1804494;79;21126;-54
2020/12/12 02:50:43;;;;;;;21.77;13.10;;;;;;;0.24;100.00;98848.61;1804526;79;21160;-54
2020/12/12 02:53:11;;;;;;;23.30;14.45;;;;;;;0.22;100.00;98844.75;1804498;79;21193;-52
2020/12/12 02:55:38;;;;;;;22.22;13.22;;;;;;;0.23;100.00;98844.36;1804326;79;21385;-55
2020/12/12 02:58:07;;;;;;;22.80;14.40;;;;;;;0.21;100.00;98848.16;1804305;79;21196;-53
2020/12/12 03:00:34;;;;;;;23.38;13.40;;;;;;;0.19;100.00;98844.77;1804495;79;21082;-55
2020/12/12 03:03:02;;;;;;;20.72;13.20;;;;;;;0.20;100.00;98845.61;1804521;79;21141;-55
2020/12/12 03:05:30;;;;;;;23.32;13.38;;;;;;;0.20;100.00;98848.17;1804269;79;21112;-53
2020/12/12 03:07:57;;;;;;;23.32;13.75;;;;;;;0.20;100.00;98842.63;1804490;78;21361;-55
2020/12/12 03:10:25;;;;;;;21.65;13.38;;;;;;;0.19;100.00;98843.48;1804370;79;21105;-53
2020/12/12 03:12:53;;;;;;;21.77;13.48;;;;;;;0.20;100.00;98850.30;1804244;79;21133;-53
2020/12/12 03:15:21;;;;;;;24.63;13.70;;;;;;;0.20;100.00;98846.47;1804465;78;21050;-53
2020/12/12 03:17:48;;;;;;;22.48;13.22;;;;;;;0.22;100.00;98844.75;1804455;79;21066;-53
2020/12/12 03:20:16;;;;;;;21.52;12.98;;;;;;;0.23;100.00;98844.36;1804608;79;21285;-55
2020/12/12 03:22:44;;;;;;;23.32;14.13;;;;;;;0.23;100.00;98846.48;1804416;79;21121;-55
2020/12/12 03:25:12;;;;;;;21.68;12.73;;;;;;;0.23;100.00;98836.26;1804523;79;21134;-54
2020/12/12 03:27:39;;;;;;;18.98;12.93;;;;;;;0.25;100.00;98844.77;1804377;79;21128;-55
2020/12/12 03:30:07;;;;;;;18.20;12.05;;;;;;;0.28;100.00;98849.02;1804483;79;21062;-55
2020/12/12 03:32:34;;;;;;;19.75;12.20;;;;;;;0.27;100.00;98848.17;1804282;79;22272;-55
2020/12/12 03:35:02;;;;;;;20.35;11.95;;;;;;;0.31;100.00;98845.62;1804441;79;21168;-54
2020/12/12 03:37:30;;;;;;;18.98;11.75;;;;;;;0.34;100.00;98853.28;1804293;79;21042;-55
2020/12/12 03:39:58;;;;;;;17.45;11.83;;;;;;;0.36;100.00;98849.01;1804408;79;21081;-55
2020/12/12 03:42:26;;;;;;;17.55;11.22;;;;;;;0.34;100.00;98846.46;1804509;79;21117;-55
2020/12/12 03:44:53;;;;;;;16.67;10.35;;;;;;;0.36;100.00;98854.12;1804383;79;21425;-55
2020/12/12 03:47:21;;;;;;;18.42;12.05;;;;;;;0.38;100.00;98850.73;1804513;79;21538;-55
2020/12/12 03:49:49;;;;;;;19.35;12.68;;;;;;;0.38;100.00;98847.30;1804259;79;21161;-55
2020/12/12 03:52:17;;;;;;;22.25;12.40;;;;;;;0.40;100.00;98849.02;1804467;79;21062;-55
2020/12/12 03:54:45;;;;;;;20.15;11.93;;;;;;;0.39;100.00;98851.16;1804513;79;21113;-55
2020/12/12 03:57:12;;;;;;;17.40;11.50;;;;;;;0.42;100.00;98849.01;1802897;79;21394;-55
2020/12/12 03:59:40;;;;;;;18.40;11.40;;;;;;;0.46;100.00;98847.73;1802038;79;21192;-54
2020/12/12 04:02:08;;;;;;;15.90;10.70;;;;;;;0.47;100.00;98839.64;1802250;79;21051;-54
2020/12/12 04:04:36;;;;;;;17.48;10.70;;;;;;;0.47;100.00;98839.20;1802166;79;21117;-55
2020/12/12 04:07:04;;;;;;;18.40;11.55;;;;;;;0.46;100.00;98841.77;1802247;78;21153;-54
2020/12/12 04:09:32;;;;;;;14.43;10.72;;;;;;;0.46;100.00;98845.18;1801918;79;21212;-55
2020/12/12 04:12:01;;;;;;;16.85;11.75;;;;;;;0.45;100.00;98844.73;1802151;79;21074;-54
2020/12/12 04:14:29;;;;;;;16.62;11.15;;;;;;;0.47;100.00;98842.20;1802172;78;21063;-53
2020/12/12 04:16:56;;;;;;;16.70;11.30;;;;;;;0.48;100.00;98846.02;1801998;79;21117;-56
2020/12/12 04:19:25;;;;;;;16.20;10.90;;;;;;;0.49;100.00;98841.76;1802102;79;21117;-54
2020/12/12 04:21:52;;;;;;;14.70;10.23;;;;;;;0.51;100.00;98843.88;1802231;79;21196;-53
2020/12/12 04:24:20;;;;;;;16.70;10.85;;;;;;;0.52;100.00;98846.85;1802063;79;21078;-53
2020/12/12 04:26:48;;;;;;;18.15;11.93;;;;;;;0.52;100.00;98846.42;1802130;79;21098;-52
2020/12/12 04:29:15;;;;;;;17.17;11.15;;;;;;;0.53;100.00;98842.19;1802229;78;21141;-53
2020/12/12 04:31:43;;;;;;;13.72;9.58;;;;;;;0.51;100.00;98842.17;1802054;79;21129;-53
2020/12/12 04:34:11;;;;;;;15.03;9.85;;;;;;;0.49;100.00;98837.92;1802202;79;21270;-53
2020/12/12 04:36:40;;;;;;;14.13;9.95;;;;;;;0.49;100.00;98839.20;1802126;78;21086;-54
2020/12/12 04:39:08;;;;;;;15.40;10.70;;;;;;;0.49;100.00;98839.20;1802306;79;21057;-53
2020/12/12 04:41:36;;;;;;;14.75;9.43;;;;;;;0.50;100.00;98840.47;1802172;79;21965;-53
2020/12/12 04:44:03;;;;;;;13.45;9.93;;;;;;;0.52;100.00;98848.13;1779691;79;21133;-54
2020/12/12 04:46:31;;;;;;;14.98;9.78;;;;;;;0.50;100.00;98839.62;1802016;79;21168;-54
2020/12/12 04:49:01;;;;;;;16.12;10.28;;;;;;;0.51;100.00;98842.59;1802132;79;21085;-54
2020/12/12 04:51:29;;;;;;;16.02;10.20;;;;;;;0.51;100.00;98836.20;1801861;79;21047;-55
2020/12/12 04:53:57;;;;;;;17.05;10.30;;;;;;;0.51;100.00;98842.59;1779718;79;21117;-56
2020/12/12 04:56:26;;;;;;;13.60;9.13;;;;;;;0.52;100.00;98844.30;1802142;79;21911;-53
2020/12/12 04:58:53;;;;;;;32.10;15.83;;;;;;;0.52;100.00;98844.30;1802281;79;21542;-56
2020/12/12 05:01:21;;;;;;;16.07;10.75;;;;;;;0.53;100.00;98847.30;1802065;79;21090;-53
2020/12/12 05:03:49;;;;;;;18.55;11.63;;;;;;;0.52;100.00;98851.97;1802127;79;21055;-53
2020/12/12 05:06:16;;;;;;;19.80;12.00;;;;;;;0.50;100.00;98847.30;1802120;79;21109;-53
2020/12/12 05:08:44;;;;;;;17.52;10.90;;;;;;;0.50;100.00;98843.45;1802044;79;21404;-53
2020/12/12 05:11:13;;;;;;;26.55;13.80;;;;;;;0.50;100.00;98846.02;1802155;79;22367;-53
2020/12/12 05:13:41;;;;;;;17.35;11.43;;;;;;;0.51;100.00;98848.98;1754672;79;21090;-53
2020/12/12 05:16:08;;;;;;;29.67;15.15;;;;;;;0.54;100.00;98852.84;1802424;79;21026;-53
2020/12/12 05:18:36;;;;;;;22.48;12.95;;;;;;;0.53;100.00;98848.59;1802314;79;21109;-53
2020/12/12 05:21:04;;;;;;;27.52;15.63;;;;;;;0.52;100.00;98850.69;1802352;79;21137;-53
2020/12/12 05:23:32;;;;;;;24.25;14.45;;;;;;;0.52;100.00;98857.93;1802168;79;21349;-53
2020/12/12 05:26:00;;;;;;;27.82;17.27;;;;;;;0.53;100.00;98849.86;1801735;79;21393;-53
2020/12/12 05:28:28;;;;;;;29.65;16.85;;;;;;;0.54;100.00;98851.13;1801845;79;21455;-53
2020/12/12 05:30:56;;;;;;;25.02;15.72;;;;;;;0.52;100.00;98853.25;1802258;79;21101;-53
2020/12/12 05:33:25;;;;;;;32.38;18.23;;;;;;;0.51;100.00;98854.11;1802339;79;21586;-52
2020/12/12 05:35:54;;;;;;;37.08;20.32;;;;;;;0.52;100.00;98854.52;1802414;79;22201;-53
2020/12/12 05:38:22;;;;;;;36.70;19.70;;;;;;;0.49;100.00;98855.83;1801268;79;21563;-56
2020/12/12 05:40:53;;;;;;;37.93;15.40;;;;;;;0.45;100.00;98852.83;1802341;78;21087;-53
2020/12/12 05:43:20;;;;;;;28.00;16.32;;;;;;;0.45;100.00;98849.84;1801710;79;21597;-53
2020/12/12 05:45:48;;;;;;;28.00;15.48;;;;;;;0.46;100.00;98852.00;1779680;79;21362;-53
2020/12/12 05:48:15;;;;;;;21.45;13.65;;;;;;;0.45;100.00;98850.27;1802273;79;21309;-53
2020/12/12 05:50:44;;;;;;;26.90;15.65;;;;;;;0.45;100.00;98847.28;1802365;79;21125;-53
2020/12/12 05:53:11;;;;;;;25.35;15.05;;;;;;;0.48;100.00;98849.01;1779951;79;21085;-53
2020/12/12 05:55:39;;;;;;;30.55;16.48;;;;;;;0.48;100.00;98851.56;1801922;79;21054;-53
2020/12/12 05:58:06;;;;;;;27.15;15.83;;;;;;;0.46;100.00;98856.69;1803989;79;21129;-54
2020/12/12 06:00:35;;;;;;;29.05;16.82;;;;;;;0.45;100.00;98846.44;1782278;79;21152;-54
2020/12/12 06:03:06;;;;;;;27.93;15.13;;;;;;;0.44;100.00;98852.41;1800876;79;21129;-53
2020/12/12 06:05:34;;;;;;;29.63;16.95;;;;;;;0.43;100.00;98857.95;1804535;79;21609;-53
2020/12/12 06:08:04;;;;;;;31.45;16.65;;;;;;;0.43;100.00;98858.37;1804597;79;21073;-54
2020/12/12 06:10:33;;;;;;;29.15;16.40;;;;;;;0.42;100.00;98851.56;1804588;79;21049;-61
2020/12/12 06:13:04;;;;;;;32.73;17.82;;;;;;;0.40;100.00;98849.02;1804559;79;21436;-54
2020/12/12 06:15:36;;;;;;;30.52;17.07;;;;;;;0.41;100.00;98849.87;1804483;78;21645;-54
2020/12/12 06:18:42;;;;;;;30.20;16.77;;;;;;;0.44;100.00;98846.02;1804613;79;21102;-54
2020/12/12 06:21:11;;;;;;;35.10;19.05;;;;;;;0.45;100.00;98861.78;1804625;79;21054;-53
2020/12/12 06:23:40;;;;;;;34.33;18.32;;;;;;;0.41;100.00;98850.72;1804451;79;21083;-53
2020/12/12 06:26:10;;;;;;;32.33;19.52;;;;;;;0.43;100.00;98861.78;1804700;78;21398;-53
2020/12/12 06:28:42;;;;;;;50.03;24.72;;;;;;;0.44;100.00;98857.52;1804501;79;21074;-54
2020/12/12 06:31:12;;;;;;;46.28;22.25;;;;;;;0.44;100.00;98849.85;1804519;79;21137;-54
2020/12/12 06:33:51;;;;;;;61.95;28.35;;;;;;;0.42;100.00;98856.69;1804500;79;21483;-53
2020/12/12 06:36:28;;;;;;;42.25;21.97;;;;;;;0.39;100.00;98855.42;1804722;79;21637;-54
2020/12/12 06:39:24;;;;;;;43.17;22.50;;;;;;;0.38;100.00;98854.97;1804726;78;25058;-54
2020/12/12 06:41:57;;;;;;;39.35;21.77;;;;;;;0.37;100.00;98855.83;1804614;79;21125;-55
2020/12/12 06:44:36;;;;;;;39.63;20.05;;;;;;;0.39;100.00;98858.83;1804623;79;21097;-55
2020/12/12 06:47:05;;;;;;;36.00;19.20;;;;;;;0.40;100.00;98859.67;1804690;79;21169;-54
2020/12/12 06:49:34;;;;;;;37.15;18.80;;;;;;;0.38;100.00;98863.52;1804384;79;21144;-55
2020/12/12 06:52:02;;;;;;;33.40;18.73;;;;;;;0.38;100.00;98868.63;1804560;79;21189;-55
2020/12/12 06:54:30;;;;;;;37.83;20.75;;;;;;;0.36;100.00;98864.35;1804399;79;21196;-54
2020/12/12 06:56:58;;;;;;;38.00;19.73;;;;;;;0.36;100.00;98863.07;1803766;79;21240;-53
2020/12/12 06:59:38;;;;;;;36.17;18.90;;;;;;;0.36;100.00;98860.09;1779654;79;21106;-54
2020/12/12 07:02:05;;;;;;;33.08;17.62;;;;;;;0.35;100.00;98865.20;1802030;78;21145;-54
2020/12/12 07:04:37;;;;;;;42.60;21.17;;;;;;;0.38;100.00;98869.03;1802141;79;22160;-54
2020/12/12 07:07:10;;;;;;;47.73;24.55;;;;;;;0.39;100.00;98863.09;1802099;79;21113;-53
2020/12/12 07:09:40;;;;;;;41.83;21.77;;;;;;;0.41;100.00;98866.48;1802074;79;21121;-54
2020/12/12 07:12:09;;;;;;;44.08;22.70;;;;;;;0.42;100.00;98873.30;1802368;79;21491;-54
2020/12/12 07:14:38;;;;;;;43.98;24.40;;;;;;;0.41;100.00;98867.77;1802168;79;21494;-54
2020/12/12 07:17:07;;;;;;;37.55;21.97;;;;;;;0.40;100.00;98860.95;1802103;79;21153;-55
2020/12/12 07:19:40;;;;;;;41.75;21.82;;;;;;;0.36;100.00;98864.35;1802221;79;21572;-54
